sensor_id;sensor_type;location;lat;lon;timestamp;P1;durP1;ratioP1;P2;durP2;ratioP2
40555;SDS011;26250;45.422;11.100;2024-03-06T21:14:15;7.80;;;4.70;;
40555;SDS011;26250;45.422;11.100;2024-03-06T21:16:42;9.65;;;5.22;;
40555;SDS011;26250;45.422;11.100;2024-03-06T21:19:09;7.00;;;5.80;;
40555;SDS011;26250;45.422;11.100;2024-03-06T21:21:36;5.57;;;4.43;;
40555;SDS011;26250;45.422;11.100;2024-03-06T21:24:03;6.13;;;4.80;;
40555;SDS011;26250;45.422;11.100;2024-03-06T21:26:30;11.18;;;5.18;;
40555;SDS011;26250;45.422;11.100;2024-03-06T21:28:57;7.47;;;4.80;;
40555;SDS011;26250;45.422;11.100;2024-03-06T21:31:24;9.43;;;4.05;;
40555;SDS011;26250;45.422;11.100;2024-03-06T21:33:51;5.22;;;3.95;;
40555;SDS011;26250;45.422;11.100;2024-03-06T21:36:22;11.10;;;4.43;;
40555;SDS011;26250;45.422;11.100;2024-03-06T21:38:48;8.00;;;5.05;;
40555;SDS011;26250;45.422;11.100;2024-03-06T21:41:16;6.03;;;5.30;;
40555;SDS011;26250;45.422;11.100;2024-03-06T21:43:43;8.57;;;5.15;;
40555;SDS011;26250;45.422;11.100;2024-03-06T21:46:11;7.65;;;4.78;;
40555;SDS011;26250;45.422;11.100;2024-03-06T21:48:39;7.05;;;4.60;;
40555;SDS011;26250;45.422;11.100;2024-03-06T21:51:07;7.57;;;4.30;;
40555;SDS011;26250;45.422;11.100;2024-03-06T21:53:36;6.13;;;4.13;;
40555;SDS011;26250;45.422;11.100;2024-03-06T21:56:04;5.70;;;4.22;;
40555;SDS011;26250;45.422;11.100;2024-03-06T21:58:36;6.80;;;5.03;;
40555;SDS011;26250;45.422;11.100;2024-03-06T22:01:03;10.32;;;5.18;;
40555;SDS011;26250;45.422;11.100;2024-03-06T22:03:30;8.40;;;4.90;;
40555;SDS011;26250;45.422;11.100;2024-03-06T22:05:58;6.05;;;4.45;;
40555;SDS011;26250;45.422;11.100;2024-03-06T22:08:25;7.43;;;4.82;;
40555;SDS011;26250;45.422;11.100;2024-03-06T22:10:52;5.07;;;4.18;;
40555;SDS011;26250;45.422;11.100;2024-03-06T22:13:20;7.82;;;4.95;;
40555;SDS011;26250;45.422;11.100;2024-03-06T22:15:47;7.50;;;5.18;;
40555;SDS011;26250;45.422;11.100;2024-03-06T22:18:14;6.32;;;4.20;;
40555;SDS011;26250;45.422;11.100;2024-03-06T22:20:41;11.25;;;5.53;;
40555;SDS011;26250;45.422;11.100;2024-03-06T22:23:08;5.05;;;4.47;;
40555;SDS011;26250;45.422;11.100;2024-03-06T22:25:36;15.50;;;5.13;;
40555;SDS011;26250;45.422;11.100;2024-03-06T22:28:03;6.05;;;5.07;;
40555;SDS011;26250;45.422;11.100;2024-03-06T22:30:30;7.00;;;4.57;;
40555;SDS011;26250;45.422;11.100;2024-03-06T22:32:57;12.98;;;7.28;;
40555;SDS011;26250;45.422;11.100;2024-03-06T22:35:24;6.93;;;4.82;;
40555;SDS011;26250;45.422;11.100;2024-03-06T22:37:51;9.38;;;4.97;;
40555;SDS011;26250;45.422;11.100;2024-03-06T22:40:18;6.60;;;4.70;;
40555;SDS011;26250;45.422;11.100;2024-03-06T22:42:45;5.25;;;4.45;;
40555;SDS011;26250;45.422;11.100;2024-03-06T22:45:12;9.80;;;5.05;;
40555;SDS011;26250;45.422;11.100;2024-03-06T22:47:40;6.30;;;5.22;;
40555;SDS011;26250;45.422;11.100;2024-03-06T22:50:07;6.85;;;3.85;;
40555;SDS011;26250;45.422;11.100;2024-03-06T22:52:36;6.75;;;4.40;;
40555;SDS011;26250;45.422;11.100;2024-03-06T22:55:03;8.02;;;4.30;;
40555;SDS011;26250;45.422;11.100;2024-03-06T22:57:33;8.35;;;3.92;;
40555;SDS011;26250;45.422;11.100;2024-03-06T23:00:00;9.63;;;4.32;;
40555;SDS011;26250;45.422;11.100;2024-03-06T23:02:32;8.53;;;3.77;;
40555;SDS011;26250;45.422;11.100;2024-03-06T23:04:59;7.35;;;3.53;;
40555;SDS011;26250;45.422;11.100;2024-03-06T23:07:26;6.25;;;3.63;;
40555;SDS011;26250;45.422;11.100;2024-03-06T23:09:53;5.30;;;3.50;;
40555;SDS011;26250;45.422;11.100;2024-03-06T23:12:20;5.72;;;3.22;;
40555;SDS011;26250;45.422;11.100;2024-03-06T23:14:47;5.95;;;3.20;;
40555;SDS011;26250;45.422;11.100;2024-03-06T23:17:14;3.63;;;2.97;;
40555;SDS011;26250;45.422;11.100;2024-03-06T23:19:41;7.85;;;2.88;;
40555;SDS011;26250;45.422;11.100;2024-03-06T23:22:07;8.50;;;3.10;;
40555;SDS011;26250;45.422;11.100;2024-03-06T23:24:34;6.75;;;2.72;;
40555;SDS011;26250;45.422;11.100;2024-03-06T23:27:01;4.38;;;2.33;;
40555;SDS011;26250;45.422;11.100;2024-03-06T23:29:28;4.15;;;2.75;;
40555;SDS011;26250;45.422;11.100;2024-03-06T23:31:56;9.60;;;2.20;;
40555;SDS011;26250;45.422;11.100;2024-03-06T23:34:23;4.88;;;2.67;;
40555;SDS011;26250;45.422;11.100;2024-03-06T23:36:50;5.18;;;2.72;;
40555;SDS011;26250;45.422;11.100;2024-03-06T23:39:17;4.72;;;2.55;;
40555;SDS011;26250;45.422;11.100;2024-03-06T23:41:45;2.97;;;2.13;;
40555;SDS011;26250;45.422;11.100;2024-03-06T23:44:12;3.25;;;2.35;;
40555;SDS011;26250;45.422;11.100;2024-03-06T23:46:38;4.10;;;2.58;;
40555;SDS011;26250;45.422;11.100;2024-03-06T23:49:05;3.90;;;2.35;;
40555;SDS011;26250;45.422;11.100;2024-03-06T23:51:33;3.35;;;2.28;;
40555;SDS011;26250;45.422;11.100;2024-03-06T23:54:00;3.10;;;2.70;;
40555;SDS011;26250;45.422;11.100;2024-03-06T23:56:27;3.50;;;2.13;;
40555;SDS011;26250;45.422;11.100;2024-03-06T23:58:54;5.55;;;2.78;;
